createdAt,value
2018-06-22T00:01:04.598Z,15.30
2018-06-22T00:03:32.681Z,15.20
2018-06-22T00:06:00.765Z,15.20
2018-06-22T00:08:28.858Z,15.20
2018-06-22T00:10:56.941Z,15.20
2018-06-22T00:13:25.067Z,15.20
2018-06-22T00:15:53.167Z,15.10
2018-06-22T00:18:21.245Z,15.10
2018-06-22T00:23:17.187Z,15.10
2018-06-22T00:25:45.292Z,15.10
2018-06-22T00:28:13.375Z,15.10
2018-06-22T00:30:41.462Z,15.10
2018-06-22T00:33:09.541Z,15.00
2018-06-22T00:35:37.639Z,15.00
2018-06-22T00:38:05.722Z,14.90
2018-06-22T00:40:33.816Z,14.90
2018-06-22T00:43:01.885Z,14.90
2018-06-22T00:45:29.970Z,14.90
2018-06-22T00:47:58.064Z,14.90
2018-06-22T00:50:26.153Z,14.80
2018-06-22T00:52:54.237Z,14.80
2018-06-22T00:57:50.258Z,14.70
2018-06-22T01:00:18.352Z,14.70
2018-06-22T01:02:46.432Z,14.70
2018-06-22T01:05:14.524Z,14.70
2018-06-22T01:07:42.613Z,14.80
2018-06-22T01:10:10.717Z,14.80
2018-06-22T01:12:38.805Z,14.70
2018-06-22T01:15:06.909Z,14.70
2018-06-22T01:17:35.041Z,14.60
2018-06-22T01:20:03.282Z,14.50
2018-06-22T01:22:31.373Z,14.40
2018-06-22T01:24:59.465Z,14.40
2018-06-22T01:27:27.573Z,14.50
2018-06-22T01:29:55.668Z,14.50
2018-06-22T01:32:23.745Z,14.60
2018-06-22T01:34:51.837Z,14.60
2018-06-22T01:37:19.936Z,14.50
2018-06-22T01:39:48.024Z,14.40
2018-06-22T01:42:16.833Z,14.30
2018-06-22T01:44:44.921Z,14.20
2018-06-22T01:47:13.030Z,14.20
2018-06-22T01:49:41.129Z,14.20
2018-06-22T01:52:09.224Z,14.20
2018-06-22T01:54:37.309Z,14.10
2018-06-22T01:57:05.573Z,14.10
2018-06-22T01:59:33.665Z,14.10
2018-06-22T02:02:01.783Z,14.10
2018-06-22T02:04:29.887Z,14.10
2018-06-22T02:06:57.975Z,14.10
2018-06-22T02:09:26.266Z,14.00
2018-06-22T02:11:54.340Z,13.90
2018-06-22T02:16:50.315Z,13.80
2018-06-22T02:19:18.408Z,13.80
2018-06-22T02:21:46.502Z,13.80
2018-06-22T02:24:14.593Z,13.80
2018-06-22T02:26:42.693Z,13.80
2018-06-22T02:29:10.777Z,13.80
2018-06-22T02:31:38.964Z,13.90
2018-06-22T02:36:34.880Z,13.80
2018-06-22T02:39:03.069Z,13.70
2018-06-22T02:41:31.169Z,13.70
2018-06-22T02:43:59.262Z,13.70
2018-06-22T02:46:27.349Z,13.70
2018-06-22T02:48:55.443Z,13.60
2018-06-22T02:51:23.538Z,13.60
2018-06-22T02:53:51.640Z,13.60
2018-06-22T02:56:19.721Z,13.50
2018-06-22T02:58:47.814Z,13.50
2018-06-22T03:01:15.905Z,13.50
2018-06-22T03:03:44.005Z,13.50
2018-06-22T03:06:12.101Z,13.40
2018-06-22T03:08:40.199Z,13.40
2018-06-22T03:11:08.317Z,13.40
2018-06-22T03:13:36.444Z,13.30
2018-06-22T03:16:04.799Z,13.30
2018-06-22T03:18:32.895Z,13.30
2018-06-22T03:21:00.990Z,13.30
2018-06-22T03:23:29.087Z,13.20
2018-06-22T03:25:57.212Z,13.10
2018-06-22T03:28:25.319Z,13.00
2018-06-22T03:30:53.435Z,12.90
2018-06-22T03:33:21.562Z,12.80
2018-06-22T03:35:49.635Z,12.70
2018-06-22T03:38:17.725Z,12.60
2018-06-22T03:43:13.687Z,12.50
2018-06-22T03:45:41.780Z,12.50
2018-06-22T03:48:09.865Z,12.50
2018-06-22T03:50:37.945Z,12.40
2018-06-22T03:53:06.033Z,12.50
2018-06-22T03:55:34.126Z,12.60
2018-06-22T03:58:02.219Z,12.60
2018-06-22T04:00:30.307Z,12.60
2018-06-22T04:02:58.406Z,12.60
2018-06-22T04:05:26.493Z,12.50
2018-06-22T04:07:54.602Z,12.50
2018-06-22T04:10:22.697Z,12.50
2018-06-22T04:12:50.801Z,12.50
2018-06-22T04:15:18.891Z,12.60
2018-06-22T04:17:51.330Z,12.60
2018-06-22T04:20:20.782Z,12.60
2018-06-22T04:22:49.317Z,12.60
2018-06-22T04:25:18.093Z,12.50
2018-06-22T04:27:46.269Z,12.50
2018-06-22T04:30:14.550Z,12.50
2018-06-22T04:32:42.637Z,12.50
2018-06-22T04:35:10.710Z,12.50
2018-06-22T04:37:39.074Z,12.50
2018-06-22T04:40:07.156Z,12.50
2018-06-22T04:42:35.269Z,12.50
2018-06-22T04:45:03.483Z,12.50
2018-06-22T04:47:31.725Z,12.50
2018-06-22T04:50:00.040Z,12.50
2018-06-22T04:52:28.134Z,12.50
2018-06-22T04:54:56.237Z,12.50
2018-06-22T04:57:24.322Z,12.60
2018-06-22T04:59:52.419Z,12.60
2018-06-22T05:02:20.793Z,12.60
2018-06-22T05:04:49.197Z,12.60
2018-06-22T05:07:17.267Z,12.70
2018-06-22T05:09:45.725Z,12.80
2018-06-22T05:12:13.824Z,12.90
2018-06-22T05:14:41.919Z,13.00
2018-06-22T05:17:10.013Z,13.00
2018-06-22T05:19:38.111Z,13.10
2018-06-22T05:22:06.495Z,13.10
2018-06-22T05:24:35.178Z,13.20
2018-06-22T05:27:03.451Z,13.20
2018-06-22T05:29:31.538Z,13.20
2018-06-22T05:31:59.626Z,13.30
2018-06-22T05:34:27.719Z,13.30
2018-06-22T05:36:55.813Z,13.40
2018-06-22T05:39:23.903Z,13.50
2018-06-22T05:41:51.981Z,13.50
2018-06-22T05:44:20.081Z,13.60
2018-06-22T05:49:16.055Z,13.70
2018-06-22T05:51:44.133Z,13.80
2018-06-22T05:54:12.243Z,13.80
2018-06-22T05:56:40.370Z,13.80
2018-06-22T05:59:08.418Z,13.80
2018-06-22T06:01:37.108Z,13.80
2018-06-22T06:04:05.428Z,13.90
2018-06-22T06:06:33.511Z,14.00
2018-06-22T06:09:01.611Z,14.00
2018-06-22T06:11:29.708Z,14.00
2018-06-22T06:13:57.799Z,14.10
2018-06-22T06:16:25.873Z,14.20
2018-06-22T06:18:54.289Z,14.30
2018-06-22T06:23:50.273Z,14.40
2018-06-22T06:26:18.374Z,14.40
2018-06-22T06:28:46.475Z,14.50
2018-06-22T06:31:14.569Z,14.50
2018-06-22T06:33:42.666Z,14.60
2018-06-22T06:36:10.753Z,14.60
2018-06-22T06:38:38.841Z,14.70
2018-06-22T06:41:06.922Z,14.80
2018-06-22T06:43:35.022Z,14.90
2018-06-22T06:46:03.127Z,15.00
2018-06-22T06:48:31.198Z,15.10
2018-06-22T06:50:59.277Z,15.30
2018-06-22T06:53:27.350Z,15.30
2018-06-22T06:55:55.443Z,15.30
2018-06-22T06:58:23.532Z,15.30
2018-06-22T07:00:51.654Z,15.30
2018-06-22T07:03:19.754Z,15.30
2018-06-22T07:05:47.834Z,15.30
2018-06-22T07:08:15.909Z,15.30
2018-06-22T07:10:44.000Z,15.40
2018-06-22T07:13:12.079Z,15.40
2018-06-22T07:15:41.215Z,15.50
2018-06-22T07:18:09.799Z,15.60
2018-06-22T07:20:38.178Z,15.60
2018-06-22T07:23:06.655Z,15.60
2018-06-22T07:28:09.226Z,15.70
2018-06-22T07:30:37.349Z,15.80
2018-06-22T07:33:05.384Z,15.90
2018-06-22T07:35:33.493Z,15.90
2018-06-22T07:38:01.558Z,16.00
2018-06-22T07:40:29.644Z,16.10
2018-06-22T07:42:57.714Z,16.10
2018-06-22T07:45:25.798Z,16.20
2018-06-22T07:47:53.862Z,16.30
2018-06-22T07:50:21.945Z,16.40
2018-06-22T07:52:50.032Z,16.40
2018-06-22T07:55:18.114Z,16.40
2018-06-22T07:57:46.232Z,16.40
2018-06-22T08:00:14.264Z,16.50
2018-06-22T08:02:42.342Z,16.60
2018-06-22T08:05:10.423Z,16.70
2018-06-22T08:07:38.485Z,16.80
2018-06-22T08:10:06.561Z,16.90
2018-06-22T08:12:34.637Z,16.90
2018-06-22T08:15:02.727Z,16.90
2018-06-22T08:17:30.826Z,16.90
2018-06-22T08:19:58.877Z,16.80
2018-06-22T08:22:26.998Z,16.80
2018-06-22T08:24:55.128Z,16.90
2018-06-22T08:27:23.180Z,16.90
2018-06-22T08:32:19.136Z,17.10
2018-06-22T08:34:47.235Z,17.20
2018-06-22T08:37:15.289Z,17.30
2018-06-22T08:39:43.381Z,17.30
2018-06-22T08:42:11.539Z,17.30
2018-06-22T08:44:39.595Z,17.30
2018-06-22T08:47:07.683Z,17.30
2018-06-22T08:49:35.763Z,17.40
2018-06-22T08:52:03.872Z,17.40
2018-06-22T08:54:31.948Z,17.40
2018-06-22T08:57:00.036Z,17.40
2018-06-22T08:59:28.107Z,17.40
2018-06-22T09:04:24.114Z,17.40
2018-06-22T09:06:52.189Z,17.40
2018-06-22T09:09:20.261Z,17.40
2018-06-22T09:11:48.343Z,17.50
2018-06-22T09:14:16.423Z,17.70
2018-06-22T09:16:44.507Z,17.80
2018-06-22T09:19:12.583Z,17.90
2018-06-22T09:21:40.691Z,18.00
2018-06-22T09:24:08.757Z,18.10
2018-06-22T09:26:36.851Z,18.10
2018-06-22T09:29:04.934Z,18.20
2018-06-22T09:31:33.028Z,18.30
2018-06-22T09:36:29.035Z,18.50
2018-06-22T09:38:57.109Z,18.60
2018-06-22T09:41:25.185Z,18.60
2018-06-22T09:43:53.254Z,18.60
2018-06-22T09:46:21.330Z,18.70
2018-06-22T09:48:49.407Z,18.60
2018-06-22T09:51:17.478Z,18.70
2018-06-22T09:53:45.809Z,18.70
2018-06-22T09:56:13.899Z,18.60
2018-06-22T09:58:41.972Z,18.70
2018-06-22T10:01:10.051Z,18.70
2018-06-22T10:03:38.117Z,18.80
2018-06-22T10:06:06.207Z,18.80
2018-06-22T10:08:34.283Z,18.80
2018-06-22T10:11:02.386Z,18.80
2018-06-22T10:13:30.445Z,18.90
2018-06-22T10:15:58.666Z,18.90
2018-06-22T10:18:26.937Z,19.00
2018-06-22T10:20:55.117Z,19.00
2018-06-22T10:23:23.380Z,19.10
2018-06-22T10:25:51.465Z,19.20
2018-06-22T10:28:19.538Z,19.20
2018-06-22T10:30:47.606Z,19.20
2018-06-22T10:33:15.685Z,19.10
2018-06-22T10:35:43.771Z,19.20
2018-06-22T10:40:39.781Z,19.40
2018-06-22T10:43:08.168Z,19.50
2018-06-22T10:45:36.243Z,19.70
2018-06-22T10:48:04.335Z,19.80
2018-06-22T10:50:32.523Z,19.90
2018-06-22T10:53:00.593Z,20.00
2018-06-22T10:55:28.684Z,20.20
2018-06-22T10:57:56.769Z,20.30
2018-06-22T11:00:24.846Z,20.40
2018-06-22T11:02:52.929Z,20.50
2018-06-22T11:05:21.018Z,20.60
2018-06-22T11:07:49.099Z,20.80
2018-06-22T11:10:17.169Z,20.80
2018-06-22T11:12:45.250Z,20.80
2018-06-22T11:15:13.331Z,20.70
2018-06-22T11:17:41.406Z,20.70
2018-06-22T11:20:09.500Z,20.60
2018-06-22T11:22:37.581Z,20.60
2018-06-22T11:25:05.669Z,20.70
2018-06-22T11:27:33.780Z,20.70
2018-06-22T11:30:01.863Z,20.80
2018-06-22T11:32:30.083Z,20.70
2018-06-22T11:34:58.159Z,20.70
2018-06-22T11:37:26.261Z,20.80
2018-06-22T11:39:54.347Z,20.90
2018-06-22T11:42:22.431Z,20.80
2018-06-22T11:44:50.506Z,20.80
2018-06-22T11:47:18.619Z,20.80
2018-06-22T11:49:46.717Z,20.80
2018-06-22T11:52:14.806Z,20.80
2018-06-22T11:54:42.891Z,20.80
2018-06-22T11:57:10.989Z,20.80
2018-06-22T11:59:39.149Z,20.80
2018-06-22T12:02:07.230Z,20.80
2018-06-22T12:04:35.306Z,20.80
2018-06-22T12:07:03.393Z,20.90
2018-06-22T12:09:31.485Z,21.00
2018-06-22T12:11:59.559Z,21.20
2018-06-22T12:14:27.647Z,21.20
2018-06-22T12:16:55.727Z,21.30
2018-06-22T12:19:23.896Z,21.40
2018-06-22T12:21:51.877Z,21.40
2018-06-22T12:24:19.953Z,21.40
2018-06-22T12:26:48.034Z,21.40
2018-06-22T12:29:16.198Z,21.30
2018-06-22T12:31:44.268Z,21.20
2018-06-22T12:34:12.354Z,21.30
2018-06-22T12:36:40.431Z,21.30
2018-06-22T12:39:10.965Z,21.40
2018-06-22T12:41:39.051Z,21.40
2018-06-22T12:44:07.141Z,21.40
2018-06-22T12:49:03.496Z,21.20
2018-06-22T12:51:31.762Z,21.40
2018-06-22T12:54:00.053Z,21.50
2018-06-22T12:56:28.062Z,21.70
2018-06-22T12:58:56.177Z,22.40
2018-06-22T13:03:52.550Z,23.10
2018-06-22T13:06:20.631Z,23.20
2018-06-22T13:08:48.726Z,23.40
2018-06-22T13:11:16.802Z,23.60
2018-06-22T13:13:44.894Z,24.10
2018-06-22T13:16:13.238Z,25.40
2018-06-22T13:18:41.627Z,27.00
2018-06-22T13:21:09.709Z,28.40
2018-06-22T13:23:38.075Z,29.50
2018-06-22T13:26:06.225Z,30.40
2018-06-22T13:28:34.419Z,30.20
2018-06-22T13:31:02.494Z,29.90
2018-06-22T13:33:30.581Z,30.10
2018-06-22T13:35:58.666Z,29.50
2018-06-22T13:38:26.751Z,28.60
2018-06-22T13:40:54.817Z,27.90
2018-06-22T13:43:22.894Z,27.20
2018-06-22T13:45:50.991Z,26.70
2018-06-22T13:48:19.067Z,26.10
2018-06-22T13:50:47.159Z,25.50
2018-06-22T13:53:15.248Z,25.10
2018-06-22T13:55:43.327Z,25.10
2018-06-22T13:58:11.400Z,24.80
2018-06-22T14:00:39.488Z,24.70
2018-06-22T14:03:07.553Z,24.70
2018-06-22T14:05:41.030Z,24.30
2018-06-22T14:08:09.102Z,24.20
2018-06-22T14:10:37.186Z,23.90
2018-06-22T14:13:05.257Z,23.70
2018-06-22T14:15:33.341Z,23.60
2018-06-22T14:18:01.418Z,23.60
2018-06-22T14:20:29.523Z,23.70
2018-06-22T14:22:57.601Z,23.60
2018-06-22T14:25:25.682Z,23.60
2018-06-22T14:27:53.762Z,23.60
2018-06-22T14:30:21.846Z,23.40
2018-06-22T14:32:49.913Z,23.50
2018-06-22T14:37:45.941Z,24.50
2018-06-22T14:40:14.005Z,25.10
2018-06-22T14:42:42.074Z,25.40
2018-06-22T14:45:10.166Z,25.30
2018-06-22T14:47:38.221Z,25.00
2018-06-22T14:50:10.562Z,24.80
2018-06-22T14:52:38.654Z,24.80
2018-06-22T14:55:12.253Z,24.70
2018-06-22T14:57:45.763Z,24.60
2018-06-22T15:00:19.068Z,24.20
2018-06-22T15:02:52.425Z,24.10
2018-06-22T15:05:25.991Z,23.90
2018-06-22T15:07:56.251Z,23.70
2018-06-22T15:10:24.435Z,23.50
2018-06-22T15:12:52.558Z,23.50
2018-06-22T15:15:20.639Z,23.40
2018-06-22T15:17:52.118Z,23.40
2018-06-22T15:20:20.697Z,23.40
2018-06-22T15:22:48.788Z,23.50
2018-06-22T15:25:16.857Z,23.50
2018-06-22T15:27:44.968Z,23.20
2018-06-22T15:30:13.046Z,23.20
2018-06-22T15:32:41.127Z,23.00
2018-06-22T15:35:14.443Z,22.70
2018-06-22T15:37:47.741Z,22.50
2018-06-22T15:40:21.351Z,22.20
2018-06-22T15:42:54.802Z,22.10
2018-06-22T15:45:28.087Z,22.10
2018-06-22T15:48:01.404Z,22.10
2018-06-22T15:50:34.825Z,22.20
2018-06-22T15:55:10.518Z,22.10
2018-06-22T15:57:38.627Z,22.10
2018-06-22T16:00:08.909Z,21.90
2018-06-22T16:02:42.531Z,22.00
2018-06-22T16:05:10.752Z,22.00
2018-06-22T16:07:39.054Z,22.10
2018-06-22T16:10:08.378Z,22.20
2018-06-22T16:12:38.755Z,22.40
2018-06-22T16:17:21.974Z,22.40
2018-06-22T16:19:55.522Z,22.50
2018-06-22T16:22:29.047Z,22.50
2018-06-22T16:25:02.657Z,22.50
2018-06-22T16:27:32.294Z,22.50
2018-06-22T16:30:00.372Z,22.60
2018-06-22T16:32:28.457Z,22.40
2018-06-22T16:34:56.525Z,22.40
2018-06-22T16:37:25.672Z,22.50
2018-06-22T16:39:53.938Z,22.50
2018-06-22T16:42:22.018Z,22.60
2018-06-22T16:44:50.085Z,22.60
2018-06-22T16:47:18.176Z,22.30
2018-06-22T16:49:46.251Z,22.30
2018-06-22T16:52:14.341Z,22.30
2018-06-22T16:54:42.413Z,22.50
2018-06-22T16:57:10.503Z,22.70
2018-06-22T16:59:38.574Z,22.80
2018-06-22T17:04:34.735Z,22.90
2018-06-22T17:07:08.063Z,22.80
2018-06-22T17:09:41.583Z,22.90
2018-06-22T17:12:14.970Z,22.90
2018-06-22T17:14:48.279Z,22.80
2018-06-22T17:17:21.643Z,22.80
2018-06-22T17:19:49.654Z,22.80
2018-06-22T17:22:17.886Z,22.70
2018-06-22T17:24:45.959Z,22.60
2018-06-22T17:27:14.066Z,22.60
2018-06-22T17:29:42.157Z,22.60
2018-06-22T17:32:10.489Z,22.50
2018-06-22T17:34:38.555Z,22.30
2018-06-22T17:37:06.651Z,22.20
2018-06-22T17:39:34.745Z,22.20
2018-06-22T17:44:30.686Z,22.00
2018-06-22T17:46:58.753Z,21.90
2018-06-22T17:49:26.834Z,21.80
2018-06-22T17:51:54.931Z,21.70
2018-06-22T17:54:23.013Z,21.70
2018-06-22T17:56:51.170Z,21.60
2018-06-22T17:59:24.655Z,21.60
2018-06-22T18:01:57.972Z,21.60
2018-06-22T18:04:31.565Z,21.50
2018-06-22T18:07:04.971Z,21.40
2018-06-22T18:09:38.575Z,21.30
2018-06-22T18:12:12.120Z,21.20
2018-06-22T18:14:40.199Z,21.10
2018-06-22T18:17:08.265Z,21.10
2018-06-22T18:19:36.350Z,21.00
2018-06-22T18:22:04.433Z,21.00
2018-06-22T18:24:32.539Z,20.90
2018-06-22T18:27:00.910Z,20.80
2018-06-22T18:29:28.982Z,20.80
2018-06-22T18:31:57.053Z,20.70
2018-06-22T18:34:25.166Z,20.70
2018-06-22T18:36:53.243Z,20.60
2018-06-22T18:41:49.172Z,20.60
2018-06-22T18:44:18.477Z,20.60
2018-06-22T18:46:47.048Z,20.50
2018-06-22T18:49:15.141Z,20.40
2018-06-22T18:51:43.226Z,20.40
2018-06-22T18:54:16.587Z,20.30
2018-06-22T18:56:50.112Z,20.20
2018-06-22T18:59:23.624Z,20.10
2018-06-22T19:01:57.102Z,20.10
2018-06-22T19:04:25.197Z,20.10
2018-06-22T19:06:53.287Z,20.00
2018-06-22T19:09:21.366Z,19.90
2018-06-22T19:11:49.535Z,18.30
2018-06-22T19:14:17.549Z,19.70
2018-06-22T19:16:45.654Z,19.70
2018-06-22T19:19:13.739Z,19.70
2018-06-22T19:21:41.863Z,19.60
2018-06-22T19:26:37.845Z,19.50
2018-06-22T19:29:05.930Z,19.50
2018-06-22T19:31:34.031Z,19.50
2018-06-22T19:34:02.119Z,19.40
2018-06-22T19:36:30.193Z,19.30
2018-06-22T19:38:58.273Z,19.20
2018-06-22T19:41:26.379Z,19.10
2018-06-22T19:43:59.917Z,19.00
2018-06-22T19:46:33.393Z,18.90
2018-06-22T19:51:08.307Z,18.90
2018-06-22T19:53:41.839Z,18.80
2018-06-22T19:56:09.949Z,18.60
2018-06-22T19:58:38.020Z,18.60
2018-06-22T20:01:06.127Z,18.40
2018-06-22T20:03:34.309Z,18.40
2018-06-22T20:06:02.422Z,18.40
2018-06-22T20:08:30.522Z,18.30
2018-06-22T20:10:58.597Z,18.30
2018-06-22T20:13:26.975Z,18.20
2018-06-22T20:15:55.075Z,18.00
2018-06-22T20:18:23.152Z,18.10
2018-06-22T20:20:51.238Z,18.00
2018-06-22T20:23:19.333Z,18.00
2018-06-22T20:25:47.738Z,17.90
2018-06-22T20:28:16.568Z,17.90
2018-06-22T20:30:46.366Z,17.80
2018-06-22T20:33:14.646Z,17.70
2018-06-22T20:35:48.061Z,17.60
2018-06-22T20:38:21.647Z,17.50
2018-06-22T20:40:55.173Z,17.50
2018-06-22T20:43:28.737Z,17.30
2018-06-22T20:45:58.035Z,17.30
2018-06-22T20:48:31.610Z,17.40
2018-06-22T20:50:59.681Z,17.30
2018-06-22T20:53:28.645Z,17.20
2018-06-22T20:55:56.769Z,17.20
2018-06-22T20:58:24.859Z,17.10
2018-06-22T21:00:53.010Z,17.10
2018-06-22T21:03:22.681Z,17.00
2018-06-22T21:05:50.817Z,17.00
2018-06-22T21:08:18.910Z,16.90
2018-06-22T21:10:47.001Z,16.80
2018-06-22T21:13:15.101Z,16.80
2018-06-22T21:15:43.225Z,16.80
2018-06-22T21:18:11.298Z,16.80
2018-06-22T21:20:43.639Z,16.60
2018-06-22T21:23:11.731Z,16.40
2018-06-22T21:25:40.052Z,16.30
2018-06-22T21:28:13.666Z,16.10
2018-06-22T21:30:47.425Z,16.00
2018-06-22T21:33:20.979Z,15.90
2018-06-22T21:35:54.501Z,15.70
2018-06-22T21:38:28.408Z,15.50
2018-06-22T21:40:56.495Z,15.40
2018-06-22T21:43:24.647Z,15.30
2018-06-22T21:45:52.751Z,15.20
2018-06-22T21:48:20.837Z,15.10
2018-06-22T21:50:49.339Z,15.10
2018-06-22T21:53:17.435Z,15.20
2018-06-22T21:55:45.529Z,15.20
2018-06-22T21:58:13.605Z,15.30
2018-06-22T22:00:41.702Z,15.40
2018-06-22T22:03:09.774Z,15.30
2018-06-22T22:05:37.859Z,15.30
2018-06-22T22:08:06.095Z,15.30
2018-06-22T22:10:39.475Z,15.40
2018-06-22T22:15:35.429Z,15.30
2018-06-22T22:18:03.519Z,15.40
2018-06-22T22:20:31.593Z,15.40
2018-06-22T22:22:59.698Z,15.40
2018-06-22T22:25:27.768Z,15.40
2018-06-22T22:27:55.861Z,15.30
2018-06-22T22:30:23.941Z,15.30
2018-06-22T22:32:52.021Z,15.30
2018-06-22T22:35:20.119Z,15.20
2018-06-22T22:37:48.210Z,15.20
2018-06-22T22:40:16.297Z,15.20
2018-06-22T22:42:44.390Z,15.20
2018-06-22T22:47:40.351Z,15.10
2018-06-22T22:50:08.434Z,15.10
2018-06-22T22:52:36.513Z,15.10
2018-06-22T22:55:04.610Z,15.10
2018-06-22T22:57:32.691Z,15.00
2018-06-22T23:00:00.795Z,15.00
2018-06-22T23:02:28.873Z,15.00
2018-06-22T23:04:56.966Z,15.00
2018-06-22T23:07:25.053Z,15.00
2018-06-22T23:09:53.154Z,15.00
2018-06-22T23:12:21.254Z,15.00
2018-06-22T23:14:49.338Z,15.00
2018-06-22T23:17:17.413Z,15.00
2018-06-22T23:19:45.507Z,14.90
2018-06-22T23:22:13.589Z,14.90
2018-06-22T23:24:41.679Z,14.90
2018-06-22T23:27:09.771Z,14.90
2018-06-22T23:29:37.853Z,14.90
2018-06-22T23:32:05.933Z,14.90
2018-06-22T23:34:34.015Z,14.90
2018-06-22T23:37:02.113Z,14.90
2018-06-22T23:39:30.206Z,14.80
2018-06-22T23:41:58.287Z,14.80
2018-06-22T23:44:26.365Z,14.80
2018-06-22T23:46:54.499Z,14.80
2018-06-22T23:49:22.597Z,14.80
2018-06-22T23:51:50.671Z,14.80
2018-06-22T23:54:18.763Z,14.80
2018-06-22T23:56:46.837Z,14.70
2018-06-22T23:59:14.926Z,14.70
